sensor_id;sensor_type;location;lat;lon;timestamp;P1;durP1;ratioP1;P2;durP2;ratioP2
49540;SDS011;35432;43.566;1.398;2023-04-03T00:00:37;7.93;;;2.50;;
49540;SDS011;35432;43.566;1.398;2023-04-03T00:03:02;9.63;;;2.37;;
49540;SDS011;35432;43.566;1.398;2023-04-03T00:05:27;11.23;;;2.63;;
49540;SDS011;35432;43.566;1.398;2023-04-03T00:07:53;8.85;;;2.80;;
49540;SDS011;35432;43.566;1.398;2023-04-03T00:10:18;8.10;;;2.63;;
49540;SDS011;35432;43.566;1.398;2023-04-03T00:12:44;10.73;;;2.70;;
49540;SDS011;35432;43.566;1.398;2023-04-03T00:15:09;8.80;;;2.70;;
49540;SDS011;35432;43.566;1.398;2023-04-03T00:17:35;10.13;;;2.90;;
49540;SDS011;35432;43.566;1.398;2023-04-03T00:20:00;11.80;;;3.47;;
49540;SDS011;35432;43.566;1.398;2023-04-03T00:22:26;9.25;;;3.03;;
49540;SDS011;35432;43.566;1.398;2023-04-03T00:24:53;8.93;;;2.80;;
49540;SDS011;35432;43.566;1.398;2023-04-03T00:27:19;8.97;;;2.57;;
49540;SDS011;35432;43.566;1.398;2023-04-03T00:29:44;7.80;;;2.40;;
49540;SDS011;35432;43.566;1.398;2023-04-03T00:32:10;8.25;;;2.40;;
49540;SDS011;35432;43.566;1.398;2023-04-03T00:34:35;9.37;;;2.60;;
49540;SDS011;35432;43.566;1.398;2023-04-03T00:37:01;6.73;;;2.53;;
49540;SDS011;35432;43.566;1.398;2023-04-03T00:39:26;8.20;;;2.60;;
49540;SDS011;35432;43.566;1.398;2023-04-03T00:41:51;7.43;;;2.90;;
49540;SDS011;35432;43.566;1.398;2023-04-03T00:47:07;8.30;;;2.63;;
49540;SDS011;35432;43.566;1.398;2023-04-03T00:49:36;8.02;;;2.60;;
49540;SDS011;35432;43.566;1.398;2023-04-03T00:52:03;10.10;;;2.72;;
49540;SDS011;35432;43.566;1.398;2023-04-03T00:54:31;8.65;;;2.88;;
49540;SDS011;35432;43.566;1.398;2023-04-03T00:56:57;5.60;;;2.72;;
49540;SDS011;35432;43.566;1.398;2023-04-03T00:59:27;6.97;;;2.47;;
49540;SDS011;35432;43.566;1.398;2023-04-03T01:01:56;12.65;;;2.60;;
49540;SDS011;35432;43.566;1.398;2023-04-03T01:04:36;7.10;;;2.50;;
49540;SDS011;35432;43.566;1.398;2023-04-03T01:07:26;8.20;;;2.97;;
49540;SDS011;35432;43.566;1.398;2023-04-03T01:09:52;12.18;;;2.80;;
49540;SDS011;35432;43.566;1.398;2023-04-03T01:12:26;8.73;;;2.58;;
49540;SDS011;35432;43.566;1.398;2023-04-03T01:14:57;10.47;;;2.73;;
49540;SDS011;35432;43.566;1.398;2023-04-03T01:17:38;12.50;;;2.88;;
49540;SDS011;35432;43.566;1.398;2023-04-03T01:25:37;9.00;;;3.38;;
49540;SDS011;35432;43.566;1.398;2023-04-03T01:28:15;9.53;;;3.27;;
49540;SDS011;35432;43.566;1.398;2023-04-03T01:30:50;8.50;;;2.90;;
49540;SDS011;35432;43.566;1.398;2023-04-03T01:33:35;10.32;;;3.25;;
49540;SDS011;35432;43.566;1.398;2023-04-03T01:36:00;11.10;;;3.40;;
49540;SDS011;35432;43.566;1.398;2023-04-03T01:38:26;9.23;;;2.83;;
49540;SDS011;35432;43.566;1.398;2023-04-03T01:40:52;8.80;;;3.53;;
49540;SDS011;35432;43.566;1.398;2023-04-03T01:43:17;11.47;;;3.00;;
49540;SDS011;35432;43.566;1.398;2023-04-03T01:45:42;9.50;;;2.90;;
49540;SDS011;35432;43.566;1.398;2023-04-03T01:48:08;8.93;;;3.10;;
49540;SDS011;35432;43.566;1.398;2023-04-03T01:50:33;8.07;;;3.00;;
49540;SDS011;35432;43.566;1.398;2023-04-03T01:52:59;9.47;;;2.93;;
49540;SDS011;35432;43.566;1.398;2023-04-03T01:55:24;12.20;;;3.30;;
49540;SDS011;35432;43.566;1.398;2023-04-03T01:57:50;10.17;;;2.90;;
49540;SDS011;35432;43.566;1.398;2023-04-03T02:00:15;7.85;;;2.88;;
49540;SDS011;35432;43.566;1.398;2023-04-03T02:02:41;9.13;;;2.60;;
49540;SDS011;35432;43.566;1.398;2023-04-03T02:05:07;6.43;;;3.00;;
49540;SDS011;35432;43.566;1.398;2023-04-03T02:07:32;13.10;;;3.03;;
49540;SDS011;35432;43.566;1.398;2023-04-03T02:09:58;9.93;;;3.30;;
49540;SDS011;35432;43.566;1.398;2023-04-03T02:12:23;8.13;;;2.87;;
49540;SDS011;35432;43.566;1.398;2023-04-03T02:14:49;9.33;;;2.73;;
49540;SDS011;35432;43.566;1.398;2023-04-03T02:17:14;6.53;;;2.97;;
49540;SDS011;35432;43.566;1.398;2023-04-03T02:19:40;8.63;;;2.65;;
49540;SDS011;35432;43.566;1.398;2023-04-03T02:22:05;8.00;;;2.53;;
49540;SDS011;35432;43.566;1.398;2023-04-03T02:24:31;8.47;;;2.87;;
49540;SDS011;35432;43.566;1.398;2023-04-03T02:26:57;6.55;;;2.47;;
49540;SDS011;35432;43.566;1.398;2023-04-03T02:29:22;9.93;;;2.70;;
49540;SDS011;35432;43.566;1.398;2023-04-03T02:31:48;10.25;;;3.30;;
49540;SDS011;35432;43.566;1.398;2023-04-03T02:34:14;9.07;;;2.90;;
49540;SDS011;35432;43.566;1.398;2023-04-03T02:36:39;9.85;;;2.85;;
49540;SDS011;35432;43.566;1.398;2023-04-03T02:39:05;10.10;;;2.77;;
49540;SDS011;35432;43.566;1.398;2023-04-03T02:41:30;7.13;;;2.63;;
49540;SDS011;35432;43.566;1.398;2023-04-03T02:44:03;9.77;;;3.20;;
49540;SDS011;35432;43.566;1.398;2023-04-03T02:46:30;8.63;;;3.20;;
49540;SDS011;35432;43.566;1.398;2023-04-03T02:48:56;8.48;;;3.25;;
49540;SDS011;35432;43.566;1.398;2023-04-03T02:51:22;9.10;;;3.10;;
49540;SDS011;35432;43.566;1.398;2023-04-03T02:53:50;7.45;;;3.28;;
49540;SDS011;35432;43.566;1.398;2023-04-03T02:56:16;9.33;;;3.30;;
49540;SDS011;35432;43.566;1.398;2023-04-03T02:58:43;8.02;;;3.30;;
49540;SDS011;35432;43.566;1.398;2023-04-03T03:01:08;7.43;;;3.30;;
49540;SDS011;35432;43.566;1.398;2023-04-03T03:03:34;7.40;;;3.40;;
49540;SDS011;35432;43.566;1.398;2023-04-03T03:06:04;9.05;;;3.00;;
49540;SDS011;35432;43.566;1.398;2023-04-03T03:08:31;10.50;;;3.37;;
49540;SDS011;35432;43.566;1.398;2023-04-03T03:10:56;10.20;;;3.67;;
49540;SDS011;35432;43.566;1.398;2023-04-03T03:13:22;7.10;;;3.27;;
49540;SDS011;35432;43.566;1.398;2023-04-03T03:15:47;8.93;;;3.40;;
49540;SDS011;35432;43.566;1.398;2023-04-03T03:18:13;9.27;;;3.67;;
49540;SDS011;35432;43.566;1.398;2023-04-03T03:20:39;10.18;;;3.67;;
49540;SDS011;35432;43.566;1.398;2023-04-03T03:23:05;9.23;;;3.40;;
49540;SDS011;35432;43.566;1.398;2023-04-03T03:25:30;8.87;;;3.00;;
49540;SDS011;35432;43.566;1.398;2023-04-03T03:27:55;10.30;;;4.03;;
49540;SDS011;35432;43.566;1.398;2023-04-03T03:30:21;8.70;;;3.40;;
49540;SDS011;35432;43.566;1.398;2023-04-03T03:32:46;13.37;;;3.20;;
49540;SDS011;35432;43.566;1.398;2023-04-03T03:35:12;11.30;;;3.30;;
49540;SDS011;35432;43.566;1.398;2023-04-03T03:37:37;11.13;;;3.05;;
49540;SDS011;35432;43.566;1.398;2023-04-03T03:40:03;9.50;;;3.60;;
49540;SDS011;35432;43.566;1.398;2023-04-03T03:42:28;8.73;;;3.50;;
49540;SDS011;35432;43.566;1.398;2023-04-03T03:44:54;10.88;;;3.28;;
49540;SDS011;35432;43.566;1.398;2023-04-03T03:47:19;7.53;;;2.90;;
49540;SDS011;35432;43.566;1.398;2023-04-03T03:49:45;8.43;;;3.50;;
49540;SDS011;35432;43.566;1.398;2023-04-03T03:52:10;8.38;;;3.15;;
49540;SDS011;35432;43.566;1.398;2023-04-03T03:54:36;7.37;;;3.27;;
49540;SDS011;35432;43.566;1.398;2023-04-03T03:57:02;10.68;;;3.30;;
49540;SDS011;35432;43.566;1.398;2023-04-03T03:59:28;8.27;;;2.90;;
49540;SDS011;35432;43.566;1.398;2023-04-03T04:01:53;9.83;;;3.23;;
49540;SDS011;35432;43.566;1.398;2023-04-03T04:04:19;9.23;;;3.20;;
49540;SDS011;35432;43.566;1.398;2023-04-03T04:06:44;9.53;;;3.90;;
49540;SDS011;35432;43.566;1.398;2023-04-03T04:09:10;9.73;;;3.33;;
49540;SDS011;35432;43.566;1.398;2023-04-03T04:11:35;7.78;;;3.03;;
49540;SDS011;35432;43.566;1.398;2023-04-03T04:14:01;8.97;;;3.03;;
49540;SDS011;35432;43.566;1.398;2023-04-03T04:16:26;9.77;;;3.27;;
49540;SDS011;35432;43.566;1.398;2023-04-03T04:18:51;11.63;;;3.50;;
49540;SDS011;35432;43.566;1.398;2023-04-03T04:21:17;11.10;;;3.40;;
49540;SDS011;35432;43.566;1.398;2023-04-03T04:23:43;7.80;;;3.30;;
49540;SDS011;35432;43.566;1.398;2023-04-03T04:26:08;7.60;;;3.50;;
49540;SDS011;35432;43.566;1.398;2023-04-03T04:28:34;10.85;;;3.67;;
49540;SDS011;35432;43.566;1.398;2023-04-03T04:30:59;10.67;;;3.70;;
49540;SDS011;35432;43.566;1.398;2023-04-03T04:33:25;9.73;;;3.63;;
49540;SDS011;35432;43.566;1.398;2023-04-03T04:35:50;11.17;;;3.40;;
49540;SDS011;35432;43.566;1.398;2023-04-03T04:38:16;8.02;;;2.97;;
49540;SDS011;35432;43.566;1.398;2023-04-03T04:40:42;9.73;;;3.03;;
49540;SDS011;35432;43.566;1.398;2023-04-03T04:43:07;11.93;;;3.33;;
49540;SDS011;35432;43.566;1.398;2023-04-03T04:45:33;14.33;;;4.00;;
49540;SDS011;35432;43.566;1.398;2023-04-03T04:47:58;10.30;;;3.53;;
49540;SDS011;35432;43.566;1.398;2023-04-03T04:50:23;9.17;;;3.57;;
49540;SDS011;35432;43.566;1.398;2023-04-03T04:52:49;10.35;;;3.30;;
49540;SDS011;35432;43.566;1.398;2023-04-03T04:55:14;10.10;;;3.47;;
49540;SDS011;35432;43.566;1.398;2023-04-03T04:57:40;8.70;;;2.97;;
49540;SDS011;35432;43.566;1.398;2023-04-03T05:00:06;9.18;;;3.15;;
49540;SDS011;35432;43.566;1.398;2023-04-03T05:02:31;9.47;;;3.67;;
49540;SDS011;35432;43.566;1.398;2023-04-03T05:04:57;8.33;;;3.27;;
49540;SDS011;35432;43.566;1.398;2023-04-03T05:07:22;11.13;;;3.63;;
49540;SDS011;35432;43.566;1.398;2023-04-03T05:09:49;11.27;;;3.90;;
49540;SDS011;35432;43.566;1.398;2023-04-03T05:12:15;10.75;;;3.78;;
49540;SDS011;35432;43.566;1.398;2023-04-03T05:14:41;10.13;;;4.17;;
49540;SDS011;35432;43.566;1.398;2023-04-03T05:17:06;9.43;;;3.95;;
49540;SDS011;35432;43.566;1.398;2023-04-03T05:19:32;9.03;;;3.50;;
49540;SDS011;35432;43.566;1.398;2023-04-03T05:21:57;11.63;;;4.30;;
49540;SDS011;35432;43.566;1.398;2023-04-03T05:24:22;13.30;;;5.40;;
49540;SDS011;35432;43.566;1.398;2023-04-03T05:26:48;11.70;;;4.07;;
49540;SDS011;35432;43.566;1.398;2023-04-03T05:29:13;8.93;;;3.83;;
49540;SDS011;35432;43.566;1.398;2023-04-03T05:31:39;11.20;;;4.50;;
49540;SDS011;35432;43.566;1.398;2023-04-03T05:34:04;10.97;;;4.40;;
49540;SDS011;35432;43.566;1.398;2023-04-03T05:36:30;8.65;;;4.07;;
49540;SDS011;35432;43.566;1.398;2023-04-03T05:38:56;12.37;;;4.40;;
49540;SDS011;35432;43.566;1.398;2023-04-03T05:41:21;10.47;;;4.37;;
49540;SDS011;35432;43.566;1.398;2023-04-03T05:43:47;10.30;;;4.53;;
49540;SDS011;35432;43.566;1.398;2023-04-03T05:46:13;11.53;;;4.23;;
49540;SDS011;35432;43.566;1.398;2023-04-03T05:48:40;11.32;;;5.05;;
49540;SDS011;35432;43.566;1.398;2023-04-03T05:51:07;8.98;;;4.00;;
49540;SDS011;35432;43.566;1.398;2023-04-03T05:53:38;10.30;;;4.17;;
49540;SDS011;35432;43.566;1.398;2023-04-03T05:56:03;8.57;;;4.25;;
49540;SDS011;35432;43.566;1.398;2023-04-03T05:58:30;11.07;;;4.28;;
49540;SDS011;35432;43.566;1.398;2023-04-03T06:00:55;10.27;;;4.20;;
49540;SDS011;35432;43.566;1.398;2023-04-03T06:03:22;8.13;;;3.90;;
49540;SDS011;35432;43.566;1.398;2023-04-03T06:05:48;11.03;;;3.80;;
49540;SDS011;35432;43.566;1.398;2023-04-03T06:08:13;10.15;;;3.75;;
49540;SDS011;35432;43.566;1.398;2023-04-03T06:10:39;8.47;;;4.13;;
49540;SDS011;35432;43.566;1.398;2023-04-03T06:13:05;8.55;;;4.20;;
49540;SDS011;35432;43.566;1.398;2023-04-03T06:15:31;9.57;;;4.37;;
49540;SDS011;35432;43.566;1.398;2023-04-03T06:17:57;8.80;;;4.20;;
49540;SDS011;35432;43.566;1.398;2023-04-03T06:20:23;11.88;;;4.35;;
49540;SDS011;35432;43.566;1.398;2023-04-03T06:22:49;7.87;;;3.80;;
49540;SDS011;35432;43.566;1.398;2023-04-03T06:25:15;9.80;;;3.90;;
49540;SDS011;35432;43.566;1.398;2023-04-03T06:27:43;9.55;;;4.47;;
49540;SDS011;35432;43.566;1.398;2023-04-03T06:30:09;10.07;;;4.33;;
49540;SDS011;35432;43.566;1.398;2023-04-03T06:32:35;8.82;;;3.75;;
49540;SDS011;35432;43.566;1.398;2023-04-03T06:35:01;7.60;;;3.80;;
49540;SDS011;35432;43.566;1.398;2023-04-03T06:37:26;9.43;;;4.05;;
49540;SDS011;35432;43.566;1.398;2023-04-03T06:39:53;8.63;;;3.73;;
49540;SDS011;35432;43.566;1.398;2023-04-03T06:42:19;9.20;;;4.18;;
49540;SDS011;35432;43.566;1.398;2023-04-03T06:44:46;11.38;;;3.88;;
49540;SDS011;35432;43.566;1.398;2023-04-03T06:47:12;8.60;;;4.10;;
49540;SDS011;35432;43.566;1.398;2023-04-03T06:49:39;10.60;;;4.07;;
49540;SDS011;35432;43.566;1.398;2023-04-03T06:52:05;11.77;;;3.63;;
49540;SDS011;35432;43.566;1.398;2023-04-03T06:54:31;9.35;;;4.07;;
49540;SDS011;35432;43.566;1.398;2023-04-03T06:56:56;8.73;;;3.78;;
49540;SDS011;35432;43.566;1.398;2023-04-03T06:59:22;10.63;;;3.90;;
49540;SDS011;35432;43.566;1.398;2023-04-03T07:01:48;10.45;;;3.90;;
49540;SDS011;35432;43.566;1.398;2023-04-03T07:04:13;10.70;;;3.97;;
49540;SDS011;35432;43.566;1.398;2023-04-03T07:06:40;10.98;;;3.88;;
49540;SDS011;35432;43.566;1.398;2023-04-03T07:09:06;8.40;;;3.83;;
49540;SDS011;35432;43.566;1.398;2023-04-03T07:11:32;9.00;;;3.83;;
49540;SDS011;35432;43.566;1.398;2023-04-03T07:13:58;10.80;;;4.40;;
49540;SDS011;35432;43.566;1.398;2023-04-03T07:16:23;11.87;;;3.77;;
49540;SDS011;35432;43.566;1.398;2023-04-03T07:18:48;8.77;;;3.70;;
49540;SDS011;35432;43.566;1.398;2023-04-03T07:21:14;12.73;;;3.87;;
49540;SDS011;35432;43.566;1.398;2023-04-03T07:23:39;8.73;;;3.47;;
49540;SDS011;35432;43.566;1.398;2023-04-03T07:26:05;8.97;;;3.70;;
49540;SDS011;35432;43.566;1.398;2023-04-03T07:28:31;11.18;;;3.60;;
49540;SDS011;35432;43.566;1.398;2023-04-03T07:31:01;8.70;;;3.47;;
49540;SDS011;35432;43.566;1.398;2023-04-03T07:33:36;8.40;;;3.20;;
49540;SDS011;35432;43.566;1.398;2023-04-03T07:36:02;8.88;;;3.72;;
49540;SDS011;35432;43.566;1.398;2023-04-03T07:38:28;7.63;;;3.08;;
49540;SDS011;35432;43.566;1.398;2023-04-03T07:40:54;12.40;;;4.10;;
49540;SDS011;35432;43.566;1.398;2023-04-03T07:43:19;8.77;;;3.47;;
49540;SDS011;35432;43.566;1.398;2023-04-03T07:45:46;6.77;;;3.30;;
49540;SDS011;35432;43.566;1.398;2023-04-03T07:48:15;8.63;;;3.20;;
49540;SDS011;35432;43.566;1.398;2023-04-03T07:50:42;9.95;;;3.67;;
49540;SDS011;35432;43.566;1.398;2023-04-03T07:53:08;9.25;;;3.92;;
49540;SDS011;35432;43.566;1.398;2023-04-03T07:55:34;9.98;;;3.40;;
49540;SDS011;35432;43.566;1.398;2023-04-03T07:58:07;7.60;;;3.50;;
49540;SDS011;35432;43.566;1.398;2023-04-03T08:00:37;8.00;;;3.22;;
49540;SDS011;35432;43.566;1.398;2023-04-03T08:03:03;7.35;;;3.55;;
49540;SDS011;35432;43.566;1.398;2023-04-03T08:05:28;7.82;;;2.90;;
49540;SDS011;35432;43.566;1.398;2023-04-03T08:07:54;9.33;;;3.20;;
49540;SDS011;35432;43.566;1.398;2023-04-03T08:10:19;9.53;;;3.30;;
49540;SDS011;35432;43.566;1.398;2023-04-03T08:12:46;8.10;;;3.10;;
49540;SDS011;35432;43.566;1.398;2023-04-03T08:15:12;9.20;;;3.07;;
49540;SDS011;35432;43.566;1.398;2023-04-03T08:17:37;6.28;;;2.58;;
49540;SDS011;35432;43.566;1.398;2023-04-03T08:20:04;7.37;;;2.63;;
49540;SDS011;35432;43.566;1.398;2023-04-03T08:22:31;8.05;;;3.00;;
49540;SDS011;35432;43.566;1.398;2023-04-03T08:24:57;9.30;;;3.20;;
49540;SDS011;35432;43.566;1.398;2023-04-03T08:27:23;7.05;;;2.88;;
49540;SDS011;35432;43.566;1.398;2023-04-03T08:29:48;8.80;;;3.20;;
49540;SDS011;35432;43.566;1.398;2023-04-03T08:32:14;9.60;;;3.27;;
49540;SDS011;35432;43.566;1.398;2023-04-03T08:34:39;7.68;;;3.00;;
49540;SDS011;35432;43.566;1.398;2023-04-03T08:37:05;10.00;;;3.37;;
49540;SDS011;35432;43.566;1.398;2023-04-03T08:39:31;10.10;;;3.55;;
49540;SDS011;35432;43.566;1.398;2023-04-03T08:41:57;7.30;;;3.50;;
49540;SDS011;35432;43.566;1.398;2023-04-03T08:45:01;7.35;;;3.00;;
49540;SDS011;35432;43.566;1.398;2023-04-03T08:47:28;7.80;;;2.88;;
49540;SDS011;35432;43.566;1.398;2023-04-03T08:50:07;7.83;;;2.93;;
49540;SDS011;35432;43.566;1.398;2023-04-03T08:52:41;6.78;;;2.90;;
49540;SDS011;35432;43.566;1.398;2023-04-03T08:55:17;7.70;;;2.70;;
49540;SDS011;35432;43.566;1.398;2023-04-03T08:57:48;7.82;;;2.75;;
49540;SDS011;35432;43.566;1.398;2023-04-03T09:00:18;11.88;;;2.97;;
49540;SDS011;35432;43.566;1.398;2023-04-03T09:02:47;10.53;;;3.50;;
49540;SDS011;35432;43.566;1.398;2023-04-03T09:05:18;9.27;;;3.22;;
49540;SDS011;35432;43.566;1.398;2023-04-03T09:07:57;8.77;;;3.10;;
49540;SDS011;35432;43.566;1.398;2023-04-03T09:10:29;9.98;;;3.05;;
49540;SDS011;35432;43.566;1.398;2023-04-03T09:13:11;6.00;;;2.42;;
49540;SDS011;35432;43.566;1.398;2023-04-03T09:15:38;7.40;;;2.50;;
49540;SDS011;35432;43.566;1.398;2023-04-03T09:18:12;7.15;;;2.83;;
49540;SDS011;35432;43.566;1.398;2023-04-03T09:23:49;8.93;;;3.20;;
49540;SDS011;35432;43.566;1.398;2023-04-03T09:26:17;8.68;;;2.88;;
49540;SDS011;35432;43.566;1.398;2023-04-03T09:28:48;10.80;;;3.97;;
49540;SDS011;35432;43.566;1.398;2023-04-03T09:31:23;8.25;;;2.83;;
49540;SDS011;35432;43.566;1.398;2023-04-03T09:33:56;7.57;;;2.70;;
49540;SDS011;35432;43.566;1.398;2023-04-03T09:36:46;7.97;;;2.70;;
49540;SDS011;35432;43.566;1.398;2023-04-03T09:39:20;6.35;;;2.50;;
49540;SDS011;35432;43.566;1.398;2023-04-03T09:41:55;7.28;;;2.10;;
49540;SDS011;35432;43.566;1.398;2023-04-03T09:44:23;6.03;;;2.33;;
49540;SDS011;35432;43.566;1.398;2023-04-03T09:46:51;6.57;;;2.47;;
49540;SDS011;35432;43.566;1.398;2023-04-03T09:49:17;5.30;;;2.20;;
49540;SDS011;35432;43.566;1.398;2023-04-03T09:51:43;7.15;;;2.22;;
49540;SDS011;35432;43.566;1.398;2023-04-03T09:54:30;6.25;;;2.40;;
49540;SDS011;35432;43.566;1.398;2023-04-03T09:57:14;7.57;;;2.50;;
49540;SDS011;35432;43.566;1.398;2023-04-03T09:59:44;8.07;;;2.63;;
49540;SDS011;35432;43.566;1.398;2023-04-03T10:04:59;5.38;;;2.28;;
49540;SDS011;35432;43.566;1.398;2023-04-03T10:07:35;7.97;;;2.20;;
49540;SDS011;35432;43.566;1.398;2023-04-03T10:10:23;7.03;;;2.20;;
49540;SDS011;35432;43.566;1.398;2023-04-03T10:13:03;6.25;;;1.63;;
49540;SDS011;35432;43.566;1.398;2023-04-03T10:15:36;4.88;;;2.05;;
49540;SDS011;35432;43.566;1.398;2023-04-03T10:18:44;6.35;;;1.95;;
49540;SDS011;35432;43.566;1.398;2023-04-03T10:21:28;6.90;;;2.00;;
49540;SDS011;35432;43.566;1.398;2023-04-03T10:34:57;6.20;;;1.63;;
49540;SDS011;35432;43.566;1.398;2023-04-03T10:40:35;5.47;;;1.90;;
49540;SDS011;35432;43.566;1.398;2023-04-03T10:48:26;5.60;;;1.80;;
49540;SDS011;35432;43.566;1.398;2023-04-03T10:51:04;6.50;;;2.03;;
49540;SDS011;35432;43.566;1.398;2023-04-03T10:53:37;5.83;;;1.83;;
49540;SDS011;35432;43.566;1.398;2023-04-03T10:58:58;5.07;;;1.70;;
49540;SDS011;35432;43.566;1.398;2023-04-03T11:01:31;7.10;;;1.80;;
49540;SDS011;35432;43.566;1.398;2023-04-03T11:04:00;4.60;;;1.40;;
49540;SDS011;35432;43.566;1.398;2023-04-03T11:06:36;5.73;;;1.50;;
49540;SDS011;35432;43.566;1.398;2023-04-03T11:12:18;5.47;;;1.40;;
49540;SDS011;35432;43.566;1.398;2023-04-03T11:14:46;4.38;;;1.58;;
49540;SDS011;35432;43.566;1.398;2023-04-03T11:19:43;4.50;;;1.60;;
49540;SDS011;35432;43.566;1.398;2023-04-03T11:22:42;5.72;;;1.50;;
49540;SDS011;35432;43.566;1.398;2023-04-03T11:27:45;4.47;;;1.20;;
49540;SDS011;35432;43.566;1.398;2023-04-03T11:30:18;5.13;;;1.30;;
49540;SDS011;35432;43.566;1.398;2023-04-03T11:32:51;4.75;;;1.25;;
49540;SDS011;35432;43.566;1.398;2023-04-03T11:35:27;4.90;;;1.40;;
49540;SDS011;35432;43.566;1.398;2023-04-03T11:37:54;6.23;;;1.83;;
49540;SDS011;35432;43.566;1.398;2023-04-03T11:40:25;4.10;;;1.20;;
49540;SDS011;35432;43.566;1.398;2023-04-03T11:43:39;5.45;;;1.13;;
49540;SDS011;35432;43.566;1.398;2023-04-03T11:50:43;5.23;;;1.17;;
49540;SDS011;35432;43.566;1.398;2023-04-03T11:55:43;4.10;;;1.40;;
49540;SDS011;35432;43.566;1.398;2023-04-03T12:16:07;3.83;;;1.10;;
49540;SDS011;35432;43.566;1.398;2023-04-03T12:26:38;5.45;;;1.40;;
49540;SDS011;35432;43.566;1.398;2023-04-03T12:48:15;5.93;;;1.17;;
49540;SDS011;35432;43.566;1.398;2023-04-03T12:50:43;4.40;;;1.20;;
49540;SDS011;35432;43.566;1.398;2023-04-03T12:53:12;5.75;;;1.38;;
49540;SDS011;35432;43.566;1.398;2023-04-03T12:55:40;6.90;;;1.30;;
49540;SDS011;35432;43.566;1.398;2023-04-03T12:58:13;4.47;;;1.08;;
49540;SDS011;35432;43.566;1.398;2023-04-03T13:00:58;7.53;;;1.10;;
49540;SDS011;35432;43.566;1.398;2023-04-03T13:03:27;5.10;;;1.27;;
49540;SDS011;35432;43.566;1.398;2023-04-03T13:05:54;5.18;;;1.05;;
49540;SDS011;35432;43.566;1.398;2023-04-03T13:08:23;4.95;;;0.95;;
49540;SDS011;35432;43.566;1.398;2023-04-03T13:10:54;4.93;;;0.97;;
49540;SDS011;35432;43.566;1.398;2023-04-03T13:13:24;4.13;;;0.90;;
49540;SDS011;35432;43.566;1.398;2023-04-03T13:15:51;6.75;;;1.55;;
49540;SDS011;35432;43.566;1.398;2023-04-03T13:18:26;6.35;;;1.20;;
49540;SDS011;35432;43.566;1.398;2023-04-03T13:20:51;3.88;;;1.00;;
49540;SDS011;35432;43.566;1.398;2023-04-03T13:23:19;5.50;;;1.23;;
49540;SDS011;35432;43.566;1.398;2023-04-03T13:25:46;5.82;;;1.25;;
49540;SDS011;35432;43.566;1.398;2023-04-03T13:28:14;6.55;;;1.30;;
49540;SDS011;35432;43.566;1.398;2023-04-03T13:30:56;5.25;;;1.00;;
49540;SDS011;35432;43.566;1.398;2023-04-03T13:33:31;5.20;;;1.10;;
49540;SDS011;35432;43.566;1.398;2023-04-03T13:36:03;6.80;;;1.30;;
49540;SDS011;35432;43.566;1.398;2023-04-03T13:38:42;8.18;;;1.30;;
49540;SDS011;35432;43.566;1.398;2023-04-03T13:44:15;4.22;;;0.90;;
49540;SDS011;35432;43.566;1.398;2023-04-03T13:46:50;5.17;;;1.20;;
49540;SDS011;35432;43.566;1.398;2023-04-03T13:49:31;6.55;;;0.95;;
49540;SDS011;35432;43.566;1.398;2023-04-03T13:52:00;4.95;;;1.08;;
49540;SDS011;35432;43.566;1.398;2023-04-03T13:54:47;4.20;;;1.20;;
49540;SDS011;35432;43.566;1.398;2023-04-03T13:57:16;4.95;;;1.08;;
49540;SDS011;35432;43.566;1.398;2023-04-03T13:59:42;4.90;;;1.00;;
49540;SDS011;35432;43.566;1.398;2023-04-03T14:02:16;5.80;;;1.10;;
49540;SDS011;35432;43.566;1.398;2023-04-03T14:07:14;5.63;;;1.20;;
49540;SDS011;35432;43.566;1.398;2023-04-03T14:09:41;4.13;;;1.10;;
49540;SDS011;35432;43.566;1.398;2023-04-03T14:12:08;5.43;;;1.10;;
49540;SDS011;35432;43.566;1.398;2023-04-03T14:14:39;4.47;;;1.15;;
49540;SDS011;35432;43.566;1.398;2023-04-03T14:17:21;5.43;;;1.20;;
49540;SDS011;35432;43.566;1.398;2023-04-03T14:19:50;4.60;;;1.02;;
49540;SDS011;35432;43.566;1.398;2023-04-03T14:22:29;4.32;;;1.00;;
49540;SDS011;35432;43.566;1.398;2023-04-03T14:24:57;4.63;;;1.17;;
49540;SDS011;35432;43.566;1.398;2023-04-03T14:27:27;5.82;;;1.33;;
49540;SDS011;35432;43.566;1.398;2023-04-03T14:29:56;5.90;;;1.37;;
49540;SDS011;35432;43.566;1.398;2023-04-03T14:32:23;4.40;;;0.95;;
49540;SDS011;35432;43.566;1.398;2023-04-03T14:34:50;4.75;;;1.10;;
49540;SDS011;35432;43.566;1.398;2023-04-03T14:37:21;6.57;;;1.08;;
49540;SDS011;35432;43.566;1.398;2023-04-03T14:39:49;5.72;;;1.40;;
49540;SDS011;35432;43.566;1.398;2023-04-03T14:42:20;7.20;;;1.20;;
49540;SDS011;35432;43.566;1.398;2023-04-03T14:44:47;6.65;;;1.50;;
49540;SDS011;35432;43.566;1.398;2023-04-03T14:47:15;4.82;;;1.10;;
49540;SDS011;35432;43.566;1.398;2023-04-03T14:49:43;5.25;;;1.17;;
49540;SDS011;35432;43.566;1.398;2023-04-03T14:54:48;7.45;;;1.52;;
49540;SDS011;35432;43.566;1.398;2023-04-03T14:57:14;6.10;;;1.33;;
49540;SDS011;35432;43.566;1.398;2023-04-03T14:59:41;6.50;;;1.35;;
49540;SDS011;35432;43.566;1.398;2023-04-03T15:02:27;5.00;;;1.10;;
49540;SDS011;35432;43.566;1.398;2023-04-03T15:04:59;6.97;;;1.20;;
49540;SDS011;35432;43.566;1.398;2023-04-03T15:07:26;6.38;;;1.20;;
49540;SDS011;35432;43.566;1.398;2023-04-03T15:09:53;5.33;;;1.23;;
49540;SDS011;35432;43.566;1.398;2023-04-03T15:12:21;4.75;;;1.10;;
49540;SDS011;35432;43.566;1.398;2023-04-03T15:14:46;6.88;;;1.70;;
49540;SDS011;35432;43.566;1.398;2023-04-03T15:17:16;4.97;;;1.00;;
49540;SDS011;35432;43.566;1.398;2023-04-03T15:19:43;5.38;;;1.25;;
49540;SDS011;35432;43.566;1.398;2023-04-03T15:22:12;8.00;;;1.67;;
49540;SDS011;35432;43.566;1.398;2023-04-03T15:24:40;5.80;;;1.30;;
49540;SDS011;35432;43.566;1.398;2023-04-03T15:27:07;5.95;;;1.27;;
49540;SDS011;35432;43.566;1.398;2023-04-03T15:29:34;6.70;;;1.35;;
49540;SDS011;35432;43.566;1.398;2023-04-03T15:32:00;5.97;;;1.20;;
49540;SDS011;35432;43.566;1.398;2023-04-03T15:34:25;6.53;;;1.40;;
49540;SDS011;35432;43.566;1.398;2023-04-03T15:36:50;7.83;;;1.67;;
49540;SDS011;35432;43.566;1.398;2023-04-03T15:39:19;6.45;;;1.52;;
49540;SDS011;35432;43.566;1.398;2023-04-03T15:41:45;6.53;;;1.30;;
49540;SDS011;35432;43.566;1.398;2023-04-03T15:44:11;6.53;;;1.48;;
49540;SDS011;35432;43.566;1.398;2023-04-03T15:46:37;6.45;;;1.50;;
49540;SDS011;35432;43.566;1.398;2023-04-03T15:49:03;5.47;;;1.50;;
49540;SDS011;35432;43.566;1.398;2023-04-03T15:51:30;6.18;;;1.30;;
49540;SDS011;35432;43.566;1.398;2023-04-03T15:53:55;7.10;;;1.67;;
49540;SDS011;35432;43.566;1.398;2023-04-03T15:56:20;6.78;;;1.73;;
49540;SDS011;35432;43.566;1.398;2023-04-03T15:58:46;5.90;;;1.70;;
49540;SDS011;35432;43.566;1.398;2023-04-03T16:01:11;5.27;;;1.37;;
49540;SDS011;35432;43.566;1.398;2023-04-03T16:03:37;8.00;;;1.50;;
49540;SDS011;35432;43.566;1.398;2023-04-03T16:06:10;6.75;;;1.52;;
49540;SDS011;35432;43.566;1.398;2023-04-03T16:08:38;4.18;;;1.00;;
49540;SDS011;35432;43.566;1.398;2023-04-03T16:11:04;5.53;;;1.37;;
49540;SDS011;35432;43.566;1.398;2023-04-03T16:13:29;5.90;;;1.40;;
49540;SDS011;35432;43.566;1.398;2023-04-03T16:15:55;4.30;;;1.20;;
49540;SDS011;35432;43.566;1.398;2023-04-03T16:18:21;8.50;;;1.20;;
49540;SDS011;35432;43.566;1.398;2023-04-03T16:20:47;5.82;;;1.50;;
49540;SDS011;35432;43.566;1.398;2023-04-03T16:23:13;6.50;;;1.43;;
49540;SDS011;35432;43.566;1.398;2023-04-03T16:25:38;7.23;;;1.70;;
49540;SDS011;35432;43.566;1.398;2023-04-03T16:28:04;5.40;;;1.47;;
49540;SDS011;35432;43.566;1.398;2023-04-03T16:30:30;8.30;;;1.88;;
49540;SDS011;35432;43.566;1.398;2023-04-03T16:32:56;5.80;;;1.40;;
49540;SDS011;35432;43.566;1.398;2023-04-03T16:35:22;5.15;;;1.40;;
49540;SDS011;35432;43.566;1.398;2023-04-03T16:37:47;7.60;;;2.17;;